createdAt,value
2018-11-21T00:05:51.791Z,15.83
2018-11-21T00:08:40.237Z,16.93
2018-11-21T00:11:28.718Z,16.20
2018-11-21T00:14:17.162Z,15.97
2018-11-21T00:17:05.638Z,16.13
2018-11-21T00:19:54.142Z,16.37
2018-11-21T00:22:42.646Z,16.03
2018-11-21T00:25:31.653Z,15.67
2018-11-21T00:28:20.137Z,16.63
2018-11-21T00:31:09.216Z,16.60
2018-11-21T00:33:57.701Z,16.63
2018-11-21T00:36:46.174Z,16.50
2018-11-21T00:39:34.631Z,16.20
2018-11-21T00:42:23.142Z,16.00
2018-11-21T00:45:12.034Z,17.40
2018-11-21T00:48:00.515Z,16.70
2018-11-21T00:50:49.003Z,16.80
2018-11-21T00:53:37.505Z,16.17
2018-11-21T00:56:25.983Z,17.10
2018-11-21T00:59:16.186Z,16.50
2018-11-21T01:02:04.675Z,17.23
2018-11-21T01:04:53.210Z,17.13
2018-11-21T01:07:41.714Z,16.47
2018-11-21T01:10:30.193Z,17.10
2018-11-21T01:13:19.184Z,17.47
2018-11-21T01:16:07.642Z,17.23
2018-11-21T01:18:56.158Z,17.17
2018-11-21T01:21:44.675Z,16.13
2018-11-21T01:24:33.151Z,16.83
2018-11-21T01:27:21.633Z,18.23
2018-11-21T01:30:10.150Z,17.50
2018-11-21T01:32:58.611Z,17.03
2018-11-21T01:35:47.087Z,16.27
2018-11-21T01:38:35.545Z,16.30
2018-11-21T01:41:23.995Z,15.50
2018-11-21T01:44:12.465Z,15.53
2018-11-21T01:47:00.921Z,16.13
2018-11-21T01:49:49.427Z,17.03
2018-11-21T01:52:37.914Z,17.27
2018-11-21T01:55:26.377Z,18.20
2018-11-21T01:58:14.856Z,16.23
2018-11-21T02:01:03.347Z,17.07
2018-11-21T02:03:51.838Z,17.07
2018-11-21T02:06:40.305Z,17.43
2018-11-21T02:09:28.769Z,17.60
2018-11-21T02:12:17.250Z,18.03
2018-11-21T02:15:05.758Z,17.40
2018-11-21T02:17:54.201Z,18.30
2018-11-21T02:20:42.703Z,18.23
2018-11-21T02:23:31.183Z,17.80
2018-11-21T02:26:20.178Z,18.37
2018-11-21T02:29:08.686Z,18.83
2018-11-21T02:31:57.151Z,18.40
2018-11-21T02:34:45.636Z,18.33
2018-11-21T02:37:34.110Z,18.33
2018-11-21T02:40:22.588Z,18.17
2018-11-21T02:43:11.048Z,18.83
2018-11-21T02:45:59.528Z,18.00
2018-11-21T02:48:48.055Z,19.10
2018-11-21T02:51:36.530Z,19.27
2018-11-21T02:54:24.957Z,19.97
2018-11-21T02:57:33.695Z,19.30
2018-11-21T03:00:25.861Z,19.67
2018-11-21T03:03:16.051Z,19.63
2018-11-21T03:06:02.841Z,18.83
2018-11-21T03:08:51.299Z,20.10
2018-11-21T03:11:39.768Z,20.63
2018-11-21T03:14:28.225Z,20.33
2018-11-21T03:17:17.416Z,20.20
2018-11-21T03:20:06.097Z,19.90
2018-11-21T03:22:54.557Z,20.23
2018-11-21T03:25:43.162Z,19.17
2018-11-21T03:28:31.635Z,19.60
2018-11-21T03:31:20.111Z,20.47
2018-11-21T03:34:08.663Z,18.50
2018-11-21T03:36:57.138Z,19.97
2018-11-21T03:39:45.622Z,19.93
2018-11-21T03:42:34.080Z,20.00
2018-11-21T03:45:22.680Z,20.53
2018-11-21T03:48:03.914Z,20.07
2018-11-21T03:53:25.702Z,20.53
2018-11-21T03:56:07.201Z,19.43
2018-11-21T03:58:48.114Z,20.07
2018-11-21T04:01:29.198Z,20.23
2018-11-21T04:04:13.188Z,21.70
2018-11-21T04:06:53.992Z,20.67
2018-11-21T04:09:35.033Z,21.00
2018-11-21T04:12:16.456Z,22.07
2018-11-21T04:14:57.835Z,21.13
2018-11-21T04:17:38.647Z,21.10
2018-11-21T04:20:19.463Z,20.83
2018-11-21T04:23:00.654Z,21.87
2018-11-21T04:25:41.637Z,21.33
2018-11-21T04:28:23.177Z,20.40
2018-11-21T04:31:04.305Z,21.43
2018-11-21T04:33:45.530Z,21.07
2018-11-21T04:36:26.241Z,21.03
2018-11-21T04:39:07.694Z,21.97
2018-11-21T04:41:48.711Z,20.57
2018-11-21T04:44:29.588Z,20.43
2018-11-21T04:47:11.032Z,20.23
2018-11-21T04:49:53.787Z,21.83
2018-11-21T04:52:34.736Z,21.63
2018-11-21T04:55:16.239Z,21.47
2018-11-21T04:57:57.442Z,20.67
2018-11-21T05:00:38.586Z,20.47
2018-11-21T05:03:19.892Z,21.73
2018-11-21T05:06:02.753Z,20.90
2018-11-21T05:08:43.018Z,22.03
2018-11-21T05:11:23.761Z,21.97
2018-11-21T05:14:04.740Z,21.00
2018-11-21T05:16:46.091Z,21.53
2018-11-21T05:19:27.434Z,22.87
2018-11-21T05:22:08.236Z,22.70
2018-11-21T05:24:49.035Z,23.07
2018-11-21T05:27:30.423Z,22.53
2018-11-21T05:30:12.993Z,21.37
2018-11-21T05:32:54.337Z,22.03
2018-11-21T05:35:35.225Z,22.83
2018-11-21T05:38:16.693Z,21.63
2018-11-21T05:40:58.104Z,21.77
2018-11-21T05:43:38.949Z,21.83
2018-11-21T05:46:19.634Z,22.10
2018-11-21T05:49:00.942Z,22.20
2018-11-21T05:51:42.059Z,22.90
2018-11-21T05:54:23.025Z,22.37
2018-11-21T05:57:03.782Z,22.50
2018-11-21T05:59:44.578Z,21.10
2018-11-21T06:02:25.972Z,22.60
2018-11-21T06:05:07.216Z,22.27
2018-11-21T06:07:48.283Z,22.60
2018-11-21T06:10:29.593Z,23.40
2018-11-21T06:13:10.955Z,23.13
2018-11-21T06:15:52.263Z,23.57
2018-11-21T06:18:33.037Z,22.87
2018-11-21T06:21:14.379Z,22.63
2018-11-21T06:23:58.208Z,22.83
2018-11-21T06:26:39.827Z,23.37
2018-11-21T06:29:20.793Z,22.43
2018-11-21T06:32:01.686Z,24.27
2018-11-21T06:34:42.962Z,23.57
2018-11-21T06:37:24.538Z,23.90
2018-11-21T06:40:05.484Z,23.50
2018-11-21T06:42:53.518Z,22.33
2018-11-21T06:45:34.942Z,23.97
2018-11-21T06:48:17.804Z,24.47
2018-11-21T06:51:06.315Z,24.53
2018-11-21T06:53:54.789Z,24.70
2018-11-21T06:56:43.270Z,23.70
2018-11-21T06:59:31.706Z,23.93
2018-11-21T07:02:20.188Z,24.33
2018-11-21T07:05:09.199Z,24.80
2018-11-21T07:08:00.757Z,23.27
2018-11-21T07:10:49.230Z,24.23
2018-11-21T07:13:37.741Z,23.37
2018-11-21T07:16:26.193Z,23.97
2018-11-21T07:19:14.645Z,23.87
2018-11-21T07:22:03.236Z,23.27
2018-11-21T07:24:51.709Z,21.90
2018-11-21T07:27:40.181Z,23.30
2018-11-21T07:30:28.655Z,23.57
2018-11-21T07:33:17.160Z,21.40
2018-11-21T07:36:05.706Z,22.97
2018-11-21T07:38:54.188Z,23.37
2018-11-21T07:41:42.678Z,22.70
2018-11-21T07:44:31.162Z,23.43
2018-11-21T07:47:19.670Z,22.97
2018-11-21T07:50:27.185Z,23.73
2018-11-21T07:53:15.668Z,22.13
2018-11-21T07:56:04.262Z,23.23
2018-11-21T07:58:52.769Z,22.37
2018-11-21T08:02:00.004Z,23.03
2018-11-21T08:05:07.258Z,22.17
2018-11-21T08:08:14.502Z,21.93
2018-11-21T08:11:21.745Z,21.03
2018-11-21T08:14:28.990Z,22.53
2018-11-21T08:17:36.231Z,21.83
2018-11-21T08:20:43.484Z,22.57
2018-11-21T08:23:55.542Z,23.07
2018-11-21T08:26:58.957Z,23.03
2018-11-21T08:29:46.408Z,22.20
2018-11-21T08:32:34.915Z,22.37
2018-11-21T08:35:23.417Z,22.27
2018-11-21T08:38:12.336Z,22.03
2018-11-21T08:41:00.825Z,21.50
2018-11-21T08:46:56.894Z,20.30
2018-11-21T08:49:45.930Z,21.67
2018-11-21T08:52:34.401Z,21.77
2018-11-21T08:55:22.893Z,21.50
2018-11-21T08:58:11.478Z,22.33
2018-11-21T09:00:59.918Z,22.53
2018-11-21T09:03:48.404Z,21.40
2018-11-21T09:06:36.875Z,21.67
2018-11-21T09:09:25.349Z,20.80
2018-11-21T09:12:15.473Z,21.70
2018-11-21T09:15:02.696Z,20.67
2018-11-21T09:17:50.784Z,22.13
2018-11-21T09:20:39.315Z,22.50
2018-11-21T09:23:27.794Z,21.17
2018-11-21T09:26:16.283Z,20.23
2018-11-21T09:29:04.780Z,21.17
2018-11-21T09:31:53.233Z,20.50
2018-11-21T09:34:41.716Z,21.57
2018-11-21T09:37:30.178Z,20.43
2018-11-21T09:40:20.223Z,20.83
2018-11-21T09:43:08.684Z,21.00
2018-11-21T09:45:57.167Z,20.57
2018-11-21T09:48:45.647Z,21.40
2018-11-21T09:51:34.131Z,20.77
2018-11-21T09:54:22.648Z,21.33
2018-11-21T09:57:11.126Z,21.77
2018-11-21T09:59:59.598Z,21.77
2018-11-21T10:03:07.086Z,21.20
2018-11-21T10:06:14.563Z,20.83
2018-11-21T10:09:06.231Z,21.77
2018-11-21T10:11:54.721Z,20.57
2018-11-21T10:14:43.223Z,21.67
2018-11-21T10:17:31.710Z,21.20
2018-11-21T10:20:13.600Z,20.37
2018-11-21T10:22:54.952Z,21.90
2018-11-21T10:25:36.189Z,21.73
2018-11-21T10:28:15.668Z,20.60
2018-11-21T10:31:04.170Z,20.97
2018-11-21T10:33:52.630Z,21.43
2018-11-21T10:36:41.094Z,21.30
2018-11-21T10:39:29.691Z,21.70
2018-11-21T10:42:18.170Z,21.40
2018-11-21T10:45:07.730Z,21.00
2018-11-21T10:47:56.218Z,20.63
2018-11-21T10:50:44.725Z,22.53
2018-11-21T10:53:33.192Z,21.13
2018-11-21T10:56:21.789Z,22.07
2018-11-21T10:59:10.230Z,21.43
2018-11-21T11:02:17.474Z,21.47
2018-11-21T11:05:24.711Z,22.30
2018-11-21T11:08:31.974Z,20.67
2018-11-21T11:11:39.231Z,22.40
2018-11-21T11:14:46.481Z,20.23
2018-11-21T11:17:53.761Z,21.00
2018-11-21T11:21:00.998Z,20.93
2018-11-21T11:24:08.257Z,19.93
2018-11-21T11:27:15.492Z,22.20
2018-11-21T11:30:22.743Z,22.23
2018-11-21T11:33:30.014Z,21.60
2018-11-21T11:36:37.253Z,21.17
2018-11-21T11:39:44.498Z,22.67
2018-11-21T11:42:51.756Z,21.57
2018-11-21T11:45:58.983Z,21.57
2018-11-21T11:49:06.225Z,22.53
2018-11-21T11:52:13.476Z,22.23
2018-11-21T11:55:20.728Z,21.63
2018-11-21T11:58:27.945Z,22.00
2018-11-21T12:01:35.191Z,21.10
2018-11-21T12:04:42.420Z,21.87
2018-11-21T12:07:49.658Z,22.73
2018-11-21T12:10:56.954Z,22.10
2018-11-21T12:14:04.211Z,21.43
2018-11-21T12:17:11.434Z,20.67
2018-11-21T12:20:18.657Z,21.23
2018-11-21T12:23:25.906Z,21.23
2018-11-21T12:26:33.153Z,23.07
2018-11-21T12:29:32.535Z,22.43
2018-11-21T12:32:39.807Z,21.80
2018-11-21T12:35:47.048Z,22.27
2018-11-21T12:38:55.045Z,22.70
2018-11-21T12:42:02.320Z,21.73
2018-11-21T12:45:09.577Z,22.23
2018-11-21T12:48:16.828Z,22.50
2018-11-21T12:51:24.065Z,22.40
2018-11-21T12:54:31.327Z,22.77
2018-11-21T12:57:38.558Z,23.07
2018-11-21T13:00:45.802Z,22.13
2018-11-21T13:03:43.147Z,21.90
2018-11-21T13:06:37.633Z,22.47
2018-11-21T13:09:44.929Z,22.20
2018-11-21T13:12:52.164Z,21.27
2018-11-21T13:15:48.627Z,21.77
2018-11-21T13:22:22.259Z,22.03
2018-11-21T13:25:29.500Z,21.63
2018-11-21T13:28:36.772Z,23.57
2018-11-21T13:31:43.990Z,23.27
2018-11-21T13:34:53.749Z,21.70
2018-11-21T13:38:01.025Z,21.90
2018-11-21T13:41:08.233Z,21.17
2018-11-21T13:44:15.512Z,22.07
2018-11-21T13:47:22.758Z,21.20
2018-11-21T13:50:34.137Z,21.60
2018-11-21T13:53:37.298Z,21.13
2018-11-21T13:56:25.761Z,23.03
2018-11-21T13:59:14.217Z,22.90
2018-11-21T14:02:02.700Z,21.40
2018-11-21T14:07:58.910Z,22.87
2018-11-21T14:13:41.966Z,22.33
2018-11-21T14:16:30.467Z,23.07
2018-11-21T14:19:18.939Z,22.60
2018-11-21T14:22:07.484Z,21.03
2018-11-21T14:24:55.933Z,22.93
2018-11-21T14:27:44.392Z,22.03
2018-11-21T14:30:32.908Z,21.33
2018-11-21T14:33:21.366Z,22.17
2018-11-21T14:36:09.897Z,22.20
2018-11-21T14:38:58.386Z,22.40
2018-11-21T14:41:47.606Z,22.00
2018-11-21T14:44:36.147Z,22.48
2018-11-21T14:47:24.647Z,21.40
2018-11-21T14:50:32.150Z,22.67
2018-11-21T14:53:20.663Z,22.20
2018-11-21T14:56:09.122Z,21.87
2018-11-21T14:58:57.593Z,21.47
2018-11-21T15:01:46.108Z,20.90
2018-11-21T15:04:34.572Z,22.07
2018-11-21T15:07:23.051Z,20.97
2018-11-21T15:10:12.277Z,21.83
2018-11-21T15:13:00.738Z,21.27
2018-11-21T15:15:49.235Z,21.33
2018-11-21T15:18:37.729Z,22.70
2018-11-21T15:21:26.189Z,23.13
2018-11-21T15:24:14.650Z,21.57
2018-11-21T15:27:03.184Z,21.07
2018-11-21T15:29:51.694Z,21.20
2018-11-21T15:32:40.171Z,21.77
2018-11-21T15:35:28.654Z,22.00
2018-11-21T15:38:17.165Z,20.97
2018-11-21T15:41:05.936Z,21.77
2018-11-21T15:43:54.387Z,22.27
2018-11-21T15:46:45.793Z,21.10
2018-11-21T15:49:31.338Z,21.93
2018-11-21T15:52:19.826Z,22.90
2018-11-21T15:55:08.717Z,21.23
2018-11-21T15:57:57.235Z,21.73
2018-11-21T16:00:45.687Z,22.20
2018-11-21T16:03:34.188Z,21.73
2018-11-21T16:06:22.662Z,22.77
2018-11-21T16:09:12.028Z,23.03
2018-11-21T16:12:00.558Z,23.17
2018-11-21T16:14:49.041Z,23.40
2018-11-21T16:17:37.535Z,23.13
2018-11-21T16:20:26.507Z,23.93
2018-11-21T16:26:08.267Z,24.17
2018-11-21T16:28:56.759Z,22.20
2018-11-21T16:31:45.269Z,24.10
2018-11-21T16:34:33.746Z,24.03
2018-11-21T16:37:22.275Z,24.43
2018-11-21T16:40:11.952Z,23.47
2018-11-21T16:45:56.990Z,23.87
2018-11-21T16:48:45.519Z,24.83
2018-11-21T16:51:34.092Z,23.40
2018-11-21T16:54:22.549Z,25.10
2018-11-21T16:57:11.121Z,25.40
2018-11-21T16:59:59.700Z,24.63
2018-11-21T17:02:48.254Z,23.97
2018-11-21T17:05:44.276Z,24.37
2018-11-21T17:08:32.801Z,24.00
2018-11-21T17:11:21.340Z,23.60
2018-11-21T17:14:09.888Z,23.43
2018-11-21T17:16:58.385Z,23.03
2018-11-21T17:19:46.930Z,24.70
2018-11-21T17:22:35.496Z,23.37
2018-11-21T17:25:05.379Z,24.33
2018-11-21T17:27:53.887Z,24.33
2018-11-21T17:30:42.446Z,24.57
2018-11-21T17:33:31.079Z,25.03
2018-11-21T17:36:19.647Z,24.97
2018-11-21T17:39:09.772Z,24.07
2018-11-21T17:41:58.274Z,25.27
2018-11-21T17:44:46.774Z,26.10
2018-11-21T17:47:35.306Z,27.87
2018-11-21T17:50:24.638Z,28.17
2018-11-21T17:56:07.294Z,29.53
2018-11-21T18:02:22.439Z,28.90
2018-11-21T18:05:12.043Z,30.43
2018-11-21T18:08:00.583Z,30.20
2018-11-21T18:10:49.112Z,30.30
2018-11-21T18:13:56.663Z,30.43
2018-11-21T18:16:45.156Z,31.53
2018-11-21T18:19:33.748Z,31.80
2018-11-21T18:22:22.288Z,32.07
2018-11-21T18:25:12.159Z,31.43
2018-11-21T18:28:03.195Z,32.23
2018-11-21T18:30:51.772Z,32.30
2018-11-21T18:36:29.094Z,32.67
2018-11-21T18:38:58.738Z,33.47
2018-11-21T18:41:47.310Z,33.33
2018-11-21T18:44:35.880Z,31.27
2018-11-21T18:50:19.867Z,32.97
2018-11-21T18:53:09.940Z,31.67
2018-11-21T18:56:10.256Z,33.37
2018-11-21T18:59:17.781Z,31.93
2018-11-21T19:02:06.521Z,33.28
2018-11-21T19:04:55.055Z,32.87
2018-11-21T19:07:44.794Z,33.03
2018-11-21T19:10:35.274Z,33.33
2018-11-21T19:13:25.343Z,31.83
2018-11-21T19:16:13.868Z,32.67
2018-11-21T19:19:02.452Z,31.37
2018-11-21T19:21:52.276Z,32.67
2018-11-21T19:24:40.836Z,31.13
2018-11-21T19:27:30.137Z,31.63
2018-11-21T19:30:19.623Z,31.87
2018-11-21T19:33:10.155Z,31.30
2018-11-21T19:35:57.530Z,31.67
2018-11-21T19:38:46.066Z,31.80
2018-11-21T19:41:34.601Z,31.70
2018-11-21T19:44:23.475Z,29.73
2018-11-21T19:46:53.347Z,31.80
2018-11-21T19:49:22.858Z,31.70
2018-11-21T19:51:52.737Z,29.63
2018-11-21T19:54:22.566Z,30.37
2018-11-21T19:56:53.745Z,31.53
2018-11-21T19:59:23.753Z,31.53
2018-11-21T20:01:53.557Z,30.40
2018-11-21T20:04:23.216Z,29.90
2018-11-21T20:07:11.780Z,31.17
2018-11-21T20:10:00.312Z,29.80
2018-11-21T20:12:48.870Z,29.80
2018-11-21T20:15:37.685Z,31.87
2018-11-21T20:18:07.315Z,27.83
2018-11-21T20:20:37.161Z,28.33
2018-11-21T20:23:08.292Z,30.57
2018-11-21T20:25:37.883Z,27.73
2018-11-21T20:28:07.649Z,28.47
2018-11-21T20:30:58.417Z,27.13
2018-11-21T20:33:47.090Z,28.63
2018-11-21T20:36:35.611Z,27.10
2018-11-21T20:39:46.957Z,27.20
2018-11-21T20:42:31.753Z,24.93
2018-11-21T20:45:21.623Z,27.97
2018-11-21T20:48:10.204Z,27.50
2018-11-21T20:50:58.769Z,26.27
2018-11-21T20:53:47.594Z,26.67
2018-11-21T20:59:43.871Z,27.47
2018-11-21T21:02:32.772Z,25.83
2018-11-21T21:05:22.868Z,25.43
2018-11-21T21:08:11.443Z,25.90
2018-11-21T21:10:48.268Z,25.13
2018-11-21T21:13:18.580Z,25.47
2018-11-21T21:15:48.145Z,26.20
2018-11-21T21:18:17.782Z,25.40
2018-11-21T21:20:48.828Z,25.70
2018-11-21T21:23:16.893Z,27.90
2018-11-21T21:25:46.447Z,27.67
2018-11-21T21:28:15.948Z,28.00
2018-11-21T21:31:06.778Z,28.43
2018-11-21T21:33:55.324Z,29.80
2018-11-21T21:36:44.010Z,27.17
2018-11-21T21:39:32.619Z,28.27
2018-11-21T21:42:24.233Z,29.73
2018-11-21T21:45:17.762Z,28.47
2018-11-21T21:48:06.392Z,28.17
2018-11-21T21:50:54.908Z,28.17
2018-11-21T21:53:43.464Z,27.53
2018-11-21T21:56:31.958Z,28.90
2018-11-21T21:59:20.518Z,27.17
2018-11-21T22:02:09.049Z,26.40
2018-11-21T22:04:57.554Z,27.17
2018-11-21T22:07:46.050Z,26.37
2018-11-21T22:10:34.582Z,28.70
2018-11-21T22:13:23.086Z,27.57
2018-11-21T22:16:11.606Z,27.10
2018-11-21T22:19:00.133Z,28.00
2018-11-21T22:21:48.632Z,27.50
2018-11-21T22:24:37.347Z,27.67
2018-11-21T22:27:06.966Z,28.67
2018-11-21T22:29:36.420Z,28.87
2018-11-21T22:32:06.054Z,28.00
2018-11-21T22:34:35.491Z,27.80
2018-11-21T22:37:23.986Z,26.87
2018-11-21T22:40:13.930Z,26.50
2018-11-21T22:43:02.454Z,27.03
2018-11-21T22:45:50.899Z,27.70
2018-11-21T22:48:39.400Z,27.37
2018-11-21T22:51:27.874Z,27.20
2018-11-21T22:54:16.310Z,27.10
2018-11-21T22:57:04.815Z,26.10
2018-11-21T22:59:53.293Z,27.63
2018-11-21T23:02:41.970Z,26.00
2018-11-21T23:05:30.454Z,25.83
2018-11-21T23:08:18.941Z,25.67
2018-11-21T23:11:07.440Z,27.35
2018-11-21T23:13:55.991Z,26.17
2018-11-21T23:16:44.474Z,26.27
2018-11-21T23:19:32.932Z,26.60
2018-11-21T23:22:21.427Z,25.83
2018-11-21T23:28:18.164Z,26.00
2018-11-21T23:31:07.561Z,28.13
2018-11-21T23:33:56.088Z,26.30
2018-11-21T23:36:44.628Z,26.20
2018-11-21T23:39:33.120Z,27.37
2018-11-21T23:42:21.602Z,27.60
2018-11-21T23:45:11.720Z,28.00
2018-11-21T23:48:00.187Z,28.23
2018-11-21T23:50:48.678Z,27.87
2018-11-21T23:53:37.149Z,27.53
2018-11-21T23:56:25.614Z,27.07
2018-11-21T23:59:14.106Z,27.33
